Flight Track Log - Related Links

Times and Time Zones

All times are in EDT time to prevent confusion due to time zone crossing. See the THU850 flight status page for this flight to view local times or setup timezone preferences in your user account.

Time Position Orientation Groundspeed Altitude Reporting Facility
EDT Latitude Longitude Course Direction KTS MPH feet Rate Location/Type
Thu 02:53:55 PM 49.6167 -87.1333 232° Southwest 180 207 9,400  Level Winnipeg Center
Thu 02:54:55 PM 49.5833 -87.2000 232° Southwest 180 207 10,800 1,550 Climbing Winnipeg Center
Thu 02:55:55 PM 49.5667 -87.2500 243° Southwest 190 219 12,500 1,388 Climbing Winnipeg Center
Thu 02:56:56 PM 49.5167 -87.3167 221° Southwest 200 230 13,600 800 Climbing Winnipeg Center
Thu 02:57:55 PM 49.4667 -87.4000 227° Southwest 220 253 14,100 252 Climbing Winnipeg Center
Thu 02:58:55 PM 49.4333 -87.4667 232° Southwest 240 276 14,100  Level Winnipeg Center
Thu 02:59:55 PM 49.3833 -87.5500 227° Southwest 260 299 14,100  Level Winnipeg Center
Thu 03:00:55 PM 49.3167 -87.6333 219° Southwest 260 299 14,100  Level Winnipeg Center
Thu 03:01:55 PM 49.2833 -87.7167 239° Southwest 250 288 14,100 -50 Level Winnipeg Center
Thu 03:02:56 PM 49.2333 -87.8000 227° Southwest 250 288 14,000  Descending Winnipeg Center
Thu 03:03:55 PM 49.1833 -87.8667 221° Southwest 250 288 14,100 50 Climbing Winnipeg Center
Thu 03:04:55 PM 49.1500 -87.9500 239° Southwest 240 276 14,100  Level Winnipeg Center
Thu 03:05:55 PM 49.1000 -88.0167 221° Southwest 240 276 14,100  Level Winnipeg Center
Thu 03:06:55 PM 49.0667 -88.1000 239° Southwest 240 276 14,100 -50 Level Winnipeg Center
Thu 03:07:56 PM 49.0167 -88.1833 228° Southwest 240 276 14,000 -50 Descending Winnipeg Center
Thu 03:08:55 PM 48.9667 -88.2333 213° Southwest 240 276 14,000  Level Winnipeg Center
Thu 03:09:55 PM 48.9333 -88.3333 243° Southwest 240 276 14,000 -50 Level Winnipeg Center
Thu 03:10:55 PM 48.8833 -88.4167 228° Southwest 240 276 13,900  Descending Winnipeg Center
Thu 03:11:55 PM 48.8333 -88.5000 228° Southwest 240 276 14,000 50 Climbing Winnipeg Center
Thu 03:12:55 PM 48.8000 -88.5500 225° Southwest 240 276 14,000 -397 Level Winnipeg Center
Thu 03:13:56 PM 48.7500 -88.6333 228° Southwest 240 276 13,200 -900 Descending Winnipeg Center
Thu 03:14:55 PM 48.7000 -88.7167 228° Southwest 250 288 12,200 -908 Descending Winnipeg Center
Thu 03:15:55 PM 48.6500 -88.7833 221° Southwest 240 276 11,400 -1,041 Descending Winnipeg Center
Thu 03:16:56 PM 48.6167 -88.8667 239° Southwest 230 265 10,100 -1,150 Descending Winnipeg Center
Thu 03:17:55 PM 48.5833 -88.9500 239° Southwest 220 253 9,100 -1,008 Descending Winnipeg Center
Thu 03:18:55 PM 48.5500 -89.0000 225° Southwest 210 242 8,100 -900 Descending Winnipeg Center
Thu 03:19:55 PM 48.5333 -89.0833 253° West 210 242 7,300 -650 Descending Winnipeg Center
Thu 03:20:55 PM 48.5000 -89.1667 239° Southwest 190 219 6,800 -645 Descending Winnipeg Center
Thu 03:21:56 PM 48.4833 -89.2333 249° West 190 219 6,000 -850 Descending Winnipeg Center
Thu 03:22:55 PM 48.4833 -89.3167 270° West 180 207 5,100 -706 Descending Winnipeg Center
Thu 03:23:55 PM 48.4500 -89.3667 225° Southwest 180 207 4,600 -298 Descending Winnipeg Center
Thu 03:24:56 PM 48.4333 -89.4500 253° West 180 207 4,500 -149 Descending Winnipeg Center
Thu 03:25:56 PM 48.4333 -89.5333 270° West 180 207 4,300 -200 Descending Winnipeg Center
Thu 03:26:56 PM 48.4000 -89.6000 233° Southwest 200 230 4,100 -100 Descending Winnipeg Center
Thu 03:27:56 PM 48.3667 -89.6333 214° Southwest 210 242 4,100 -300 Level Winnipeg Center
Thu 03:28:56 PM 48.3167 -89.6167 168° South 180 207 3,500 -500 Descending Winnipeg Center
Thu 03:29:56 PM 48.3000 -89.5500 111° Southeast 230 265 3,100 -200 Descending Winnipeg Center
Thu 03:30:56 PM 48.3000 -89.4667 90° East 200 230 3,100 -350 Level Winnipeg Center
Thu 03:31:56 PM 48.3167 -89.4167 63° Northeast 140 161 2,400 -750 Descending Winnipeg Center
Thu 03:32:56 PM 48.3333 -89.3667 63° Northeast 140 161 1,600 -750 Descending Winnipeg Center
Thu 03:33:56 PM 48.3500 -89.3167 63° Northeast 130 150 900 -450 Descending Winnipeg Center
Thu 03:34:56 PM 48.3667 -89.2833 53° Northeast 30 35 700 -200 Descending Winnipeg Center

Login

Don't have an account? Register now (free) for customized features, flight alerts, and more!